createdAt,value
2018-05-27T00:00:29.191Z,18.80
2018-05-27T00:05:31.699Z,18.70
2018-05-27T00:10:34.215Z,18.70
2018-05-27T00:15:36.728Z,18.60
2018-05-27T00:20:39.248Z,18.50
2018-05-27T00:25:41.769Z,18.40
2018-05-27T00:30:44.288Z,18.40
2018-05-27T00:35:46.813Z,18.40
2018-05-27T00:40:49.321Z,18.30
2018-05-27T00:45:51.828Z,18.20
2018-05-27T00:50:54.369Z,18.20
2018-05-27T00:55:56.890Z,18.10
2018-05-27T01:01:00.908Z,18.00
2018-05-27T01:06:03.429Z,18.00
2018-05-27T01:11:05.940Z,18.00
2018-05-27T01:16:08.457Z,17.90
2018-05-27T01:21:10.997Z,17.80
2018-05-27T01:26:13.504Z,17.80
2018-05-27T01:31:16.032Z,17.80
2018-05-27T01:36:18.540Z,17.70
2018-05-27T01:41:21.059Z,17.70
2018-05-27T01:46:23.580Z,17.60
2018-05-27T01:51:26.096Z,17.50
2018-05-27T01:56:28.671Z,17.50
2018-05-27T02:01:31.192Z,17.50
2018-05-27T02:06:34.480Z,17.30
2018-05-27T02:11:37.006Z,17.30
2018-05-27T02:16:40.451Z,17.30
2018-05-27T02:21:42.964Z,17.20
2018-05-27T02:26:45.556Z,17.20
2018-05-27T02:31:48.152Z,17.10
2018-05-27T02:36:50.694Z,17.10
2018-05-27T02:41:53.204Z,17.10
2018-05-27T02:46:55.757Z,17.00
2018-05-27T02:51:58.279Z,16.90
2018-05-27T02:57:00.807Z,16.90
2018-05-27T03:02:03.342Z,16.90
2018-05-27T03:07:05.873Z,16.80
2018-05-27T03:12:08.405Z,16.70
2018-05-27T03:17:10.924Z,16.70
2018-05-27T03:22:13.436Z,16.70
2018-05-27T03:27:15.957Z,16.60
2018-05-27T03:32:18.471Z,16.60
2018-05-27T03:37:20.995Z,16.60
2018-05-27T03:42:23.504Z,16.50
2018-05-27T03:47:26.016Z,16.50
2018-05-27T03:52:28.530Z,16.50
2018-05-27T03:57:31.036Z,16.50
2018-05-27T04:02:33.587Z,16.50
2018-05-27T04:07:48.664Z,16.50
2018-05-27T04:12:51.177Z,16.50
2018-05-27T04:17:53.692Z,16.50
2018-05-27T04:22:56.212Z,16.50
2018-05-27T04:27:58.728Z,16.60
2018-05-27T04:33:01.260Z,16.60
2018-05-27T04:38:03.785Z,16.70
2018-05-27T04:43:06.300Z,16.70
2018-05-27T04:48:08.816Z,16.80
2018-05-27T04:53:11.339Z,16.80
2018-05-27T04:58:13.857Z,16.90
2018-05-27T05:03:16.381Z,17.00
2018-05-27T05:08:18.900Z,17.10
2018-05-27T05:13:21.404Z,17.20
2018-05-27T05:18:23.928Z,17.30
2018-05-27T05:23:26.444Z,17.40
2018-05-27T05:28:29.731Z,17.70
2018-05-27T05:33:32.245Z,17.70
2018-05-27T05:38:34.764Z,17.90
2018-05-27T05:43:37.281Z,18.20
2018-05-27T05:48:39.795Z,18.50
2018-05-27T05:53:42.300Z,18.80
2018-05-27T05:58:44.858Z,19.10
2018-05-27T06:03:47.410Z,19.40
2018-05-27T06:08:49.952Z,19.60
2018-05-27T06:13:52.496Z,20.00
2018-05-27T06:18:55.069Z,20.30
2018-05-27T06:23:57.642Z,20.60
2018-05-27T06:29:00.168Z,20.90
2018-05-27T06:34:03.308Z,21.30
2018-05-27T06:39:09.568Z,21.60
2018-05-27T06:44:12.270Z,21.90
2018-05-27T06:49:15.033Z,22.20
2018-05-27T06:54:17.592Z,22.50
2018-05-27T06:59:20.203Z,22.80
2018-05-27T07:04:22.777Z,23.00
2018-05-27T07:09:26.092Z,23.70
2018-05-27T07:14:29.308Z,23.70
2018-05-27T07:19:36.212Z,24.00
2018-05-27T07:24:40.157Z,24.30
2018-05-27T07:29:42.694Z,24.70
2018-05-27T07:34:45.204Z,24.90
2018-05-27T07:39:47.716Z,25.20
2018-05-27T07:44:50.231Z,25.50
2018-05-27T07:49:52.786Z,25.80
2018-05-27T07:54:55.300Z,26.00
2018-05-27T07:59:58.606Z,26.50
2018-05-27T08:05:01.206Z,26.40
2018-05-27T08:10:03.716Z,26.80
2018-05-27T08:15:06.247Z,27.00
2018-05-27T08:20:11.830Z,27.20
2018-05-27T08:25:14.394Z,27.50
2018-05-27T08:30:16.996Z,27.70
2018-05-27T08:35:19.576Z,27.90
2018-05-27T08:40:22.142Z,28.10
2018-05-27T08:45:24.789Z,28.30
2018-05-27T08:50:27.372Z,28.50
2018-05-27T08:55:29.924Z,28.70
2018-05-27T09:00:32.557Z,28.80
2018-05-27T09:05:35.130Z,28.90
2018-05-27T09:10:37.689Z,28.90
2018-05-27T09:15:40.259Z,29.00
2018-05-27T09:20:42.849Z,29.00
2018-05-27T09:25:45.432Z,29.00
2018-05-27T09:30:47.984Z,29.10
2018-05-27T09:35:50.574Z,29.10
2018-05-27T09:40:53.143Z,29.10
2018-05-27T09:45:55.693Z,29.00
2018-05-27T09:50:58.292Z,29.10
2018-05-27T09:56:00.854Z,29.20
2018-05-27T10:01:03.388Z,29.30
2018-05-27T10:06:06.058Z,29.50
2018-05-27T10:11:08.609Z,29.60
2018-05-27T10:16:11.226Z,29.60
2018-05-27T10:21:13.885Z,29.80
2018-05-27T10:26:16.422Z,29.80
2018-05-27T10:31:18.975Z,29.90
2018-05-27T10:36:22.317Z,29.80
2018-05-27T10:41:24.929Z,29.80
2018-05-27T10:46:27.557Z,29.90
2018-05-27T10:51:30.433Z,29.90
2018-05-27T10:56:33.102Z,29.90
2018-05-27T11:01:35.724Z,29.90
2018-05-27T11:06:38.228Z,30.00
2018-05-27T11:11:40.805Z,30.20
2018-05-27T11:16:43.379Z,30.30
2018-05-27T11:21:46.130Z,30.40
2018-05-27T11:26:49.567Z,30.40
2018-05-27T11:31:52.250Z,30.60
2018-05-27T11:36:54.854Z,30.70
2018-05-27T11:41:57.433Z,30.90
2018-05-27T11:46:59.973Z,31.00
2018-05-27T11:52:02.630Z,31.00
2018-05-27T11:57:10.210Z,31.20
2018-05-27T12:02:14.981Z,31.20
2018-05-27T12:07:19.594Z,31.30
2018-05-27T12:12:23.089Z,31.50
2018-05-27T12:17:25.627Z,31.60
2018-05-27T12:22:28.977Z,31.80
2018-05-27T12:27:31.580Z,31.80
2018-05-27T12:32:34.127Z,32.00
2018-05-27T12:37:36.731Z,32.10
2018-05-27T12:42:40.331Z,32.20
2018-05-27T12:47:42.961Z,32.30
2018-05-27T12:52:45.486Z,32.30
2018-05-27T12:57:48.071Z,32.40
2018-05-27T13:02:52.041Z,32.50
2018-05-27T13:07:54.703Z,32.40
2018-05-27T13:12:57.299Z,32.50
2018-05-27T13:17:59.946Z,32.50
2018-05-27T13:23:02.563Z,32.30
2018-05-27T13:28:05.154Z,32.30
2018-05-27T13:33:08.745Z,32.30
2018-05-27T13:38:11.435Z,32.20
2018-05-27T13:43:14.103Z,32.20
2018-05-27T13:48:16.719Z,32.10
2018-05-27T13:53:19.379Z,32.10
2018-05-27T13:58:22.312Z,32.00
2018-05-27T14:03:25.071Z,32.10
2018-05-27T14:08:27.672Z,32.00
2018-05-27T14:13:30.300Z,32.00
2018-05-27T14:18:33.199Z,32.00
2018-05-27T14:23:35.745Z,32.00
2018-05-27T14:28:38.310Z,32.00
2018-05-27T14:33:41.002Z,32.00
2018-05-27T14:38:43.634Z,32.00
2018-05-27T14:43:46.165Z,32.00
2018-05-27T14:48:48.706Z,31.90
2018-05-27T14:53:51.266Z,31.80
2018-05-27T14:58:53.799Z,31.80
2018-05-27T15:03:56.328Z,31.80
2018-05-27T15:09:00.601Z,31.80
2018-05-27T15:14:03.294Z,31.80
2018-05-27T15:19:05.876Z,31.80
2018-05-27T15:24:08.421Z,31.80
2018-05-27T15:29:11.118Z,31.70
2018-05-27T15:34:13.678Z,31.70
2018-05-27T15:39:16.249Z,31.70
2018-05-27T15:44:22.207Z,31.70
2018-05-27T15:49:26.359Z,31.70
2018-05-27T15:54:29.133Z,31.70
2018-05-27T15:59:31.750Z,31.70
2018-05-27T16:04:37.179Z,31.70
2018-05-27T16:09:40.568Z,31.60
2018-05-27T16:14:43.191Z,31.60
2018-05-27T16:19:47.444Z,31.50
2018-05-27T16:24:50.005Z,31.50
2018-05-27T16:29:53.121Z,31.50
2018-05-27T16:34:55.705Z,31.50
2018-05-27T16:39:58.272Z,31.40
2018-05-27T16:45:00.798Z,31.30
2018-05-27T16:50:03.320Z,31.20
2018-05-27T16:55:05.832Z,31.10
2018-05-27T17:00:08.450Z,31.00
2018-05-27T17:05:10.940Z,30.90
2018-05-27T17:10:13.458Z,30.80
2018-05-27T17:15:15.977Z,30.70
2018-05-27T17:20:18.492Z,30.60
2018-05-27T17:25:21.032Z,30.40
2018-05-27T17:30:23.536Z,30.30
2018-05-27T17:35:26.055Z,30.20
2018-05-27T17:40:28.575Z,30.00
2018-05-27T17:45:31.088Z,29.80
2018-05-27T17:50:33.605Z,29.70
2018-05-27T17:55:36.124Z,29.50
2018-05-27T18:00:38.662Z,29.30
2018-05-27T18:05:41.180Z,29.20
2018-05-27T18:10:43.695Z,29.00
2018-05-27T18:15:46.217Z,28.80
2018-05-27T18:20:48.752Z,28.70
2018-05-27T18:25:51.281Z,28.50
2018-05-27T18:30:53.812Z,28.30
2018-05-27T18:35:57.096Z,27.90
2018-05-27T18:40:59.612Z,27.90
2018-05-27T18:46:02.128Z,27.80
2018-05-27T18:51:04.667Z,27.70
2018-05-27T18:56:07.172Z,27.50
2018-05-27T19:01:09.710Z,27.40
2018-05-27T19:06:13.009Z,27.10
2018-05-27T19:11:15.530Z,27.00
2018-05-27T19:16:18.829Z,26.80
2018-05-27T19:21:21.337Z,26.70
2018-05-27T19:26:25.361Z,26.40
2018-05-27T19:31:27.883Z,26.40
2018-05-27T19:36:30.399Z,26.30
2018-05-27T19:41:32.951Z,26.10
2018-05-27T19:46:35.509Z,26.00
2018-05-27T19:51:38.024Z,25.80
2018-05-27T19:56:40.544Z,25.70
2018-05-27T20:01:43.139Z,25.60
2018-05-27T20:06:45.688Z,25.40
2018-05-27T20:11:48.222Z,25.30
2018-05-27T20:16:50.756Z,25.20
2018-05-27T20:21:54.033Z,24.90
2018-05-27T20:26:56.557Z,24.90
2018-05-27T20:31:59.082Z,24.80
2018-05-27T20:37:01.600Z,24.60
2018-05-27T20:42:04.129Z,24.50
2018-05-27T20:47:06.660Z,24.40
2018-05-27T20:52:09.951Z,24.10
2018-05-27T20:57:12.472Z,24.10
2018-05-27T21:02:15.764Z,23.80
2018-05-27T21:07:18.288Z,23.80
2018-05-27T21:12:20.807Z,23.70
2018-05-27T21:17:23.332Z,23.60
2018-05-27T21:22:25.865Z,23.50
2018-05-27T21:27:28.380Z,23.30
2018-05-27T21:32:30.905Z,23.20
2018-05-27T21:37:33.615Z,23.00
2018-05-27T21:42:36.140Z,22.90
2018-05-27T21:47:38.677Z,22.80
2018-05-27T21:52:41.217Z,22.70
2018-05-27T21:57:43.720Z,22.60
2018-05-27T22:02:46.242Z,22.50
2018-05-27T22:07:48.764Z,22.30
2018-05-27T22:12:51.285Z,22.20
2018-05-27T22:17:53.804Z,22.10
2018-05-27T22:22:56.323Z,22.00
2018-05-27T22:27:58.842Z,21.90
2018-05-27T22:33:01.356Z,21.80
2018-05-27T22:38:03.880Z,21.70
2018-05-27T22:43:06.408Z,21.60
2018-05-27T22:48:08.928Z,21.50
2018-05-27T22:53:11.560Z,21.40
2018-05-27T22:58:14.064Z,21.30
2018-05-27T23:03:16.593Z,21.20
2018-05-27T23:08:19.104Z,21.10
2018-05-27T23:13:21.621Z,21.00
2018-05-27T23:18:24.140Z,20.90
2018-05-27T23:23:26.665Z,20.80
2018-05-27T23:28:29.943Z,20.70
2018-05-27T23:33:32.475Z,20.70
2018-05-27T23:38:35.004Z,20.60
2018-05-27T23:43:37.528Z,20.50
2018-05-27T23:48:40.054Z,20.40
2018-05-27T23:53:42.557Z,20.40
2018-05-27T23:58:45.844Z,20.20
